Latest Weather Observations for Cloncurry

IDQ60801

Issued at 4:32 pm EST Sunday 21 December 2014 (issued every 30 minutes, with the page automatically refreshed every 10 minutes)

About weather observations | Map of weather stations | Latest weather observations for QLD | Other Formats
Station Details ID: 029141 Name: CLONCURRY AIRPORT Lat: -20.67 Lon: 140.50 Height: 186.0 m
Data from the previous 72 hours. | See also: Recent months at Cloncurry
Date/Time
EST
Temp
°C
App
Temp
°C
Dew
Point
Rel
Hum
%
Delta-T
°C
Wind Press
QNH
hPa
Press
MSL
hPa
Rain
since 9 am
mm
Dir
 
Spd
km/h
Gust
km/h
Spd
kts
Gust
kts
21/04:30pm 35.8 32.1 17.5 34 11.9 NNE 33 46 18 25 1006.1 1004.6 0.0
21/04:25pm 36.4 33.3 18.5 35 11.9 NNE 32 43 17 23 1006.0 1004.5 0.0
21/04:00pm 37.6 35.0 18.6 33 12.6 N 30 39 16 21 1005.9 1004.4 0.0
21/03:30pm 38.6 38.2 16.2 26 14.4 E 13 26 7 14 1006.4 1004.9 0.0
21/03:00pm 39.9 37.6 7.4 14 18.7 ESE 9 15 5 8 1006.4 1004.9 0.0
21/02:30pm 40.6 38.7 8.9 15 18.6 SE 9 28 5 15 1007.0 1005.6 0.0
21/02:00pm 40.5 37.0 8.8 15 18.6 E 17 24 9 13 1007.4 1006.0 0.0
21/01:30pm 38.7 36.9 9.3 17 17.2 SE 9 15 5 8 1007.7 1006.3 0.0
21/01:00pm 39.1 37.6 10.4 18 17.1 NE 9 20 5 11 1008.6 1007.1 0.0
21/12:30pm 38.0 35.1 11.1 20 16.1 NE 17 24 9 13 1009.1 1007.6 0.0
21/12:00pm 38.1 34.4 9.6 18 16.7 ENE 19 28 10 15 1009.6 1008.1 0.0
21/11:30am 38.3 36.1 12.1 21 15.9 NE 15 28 8 15 1010.1 1008.6 0.0
21/11:00am 37.9 36.1 13.2 23 15.3 ENE 15 30 8 16 1010.3 1008.8 0.0
21/10:30am 36.7 36.1 14.6 26 13.9 ENE 11 20 6 11 1010.4 1008.9 0.0
21/10:00am 35.5 34.9 14.7 28 13.0 ENE 11 22 6 12 1010.6 1009.1 0.0
21/09:30am 34.6 33.8 15.0 31 12.3 NE 13 24 7 13 1010.6 1009.1 0.0
21/09:00am 33.8 33.6 14.8 32 11.8 ENE 9 17 5 9 1010.6 1009.1 0.0
21/08:30am 32.5 32.0 13.7 32 11.5 NE 9 17 5 9 1010.2 1008.7 0.0
21/08:00am 31.8 31.3 12.6 31 11.5 E 7 15 4 8 1010.0 1008.5 0.0
21/07:30am 30.7 29.8 10.6 29 11.6 SE 6 7 3 4 1009.8 1008.3 0.0
21/07:00am 29.0 28.2 11.1 33 10.3 SE 6 7 3 4 1009.5 1008.0 0.0
21/06:30am 26.5 26.7 10.6 37 9.0 CALM 0 0 0 0 1009.2 1007.7 0.0
21/06:00am 26.8 25.5 9.2 33 9.8 NNE 6 7 3 4 1008.8 1007.3 0.0
21/05:30am 27.5 26.6 9.3 32 10.1 ENE 4 7 2 4 1008.4 1006.9 0.0
21/05:00am 25.4 23.8 8.0 33 9.4 ESE 6 9 3 5 1008.2 1006.7 0.0
21/04:30am 28.5 26.0 8.2 28 11.1 ESE 11 15 6 8 1007.8 1006.4 0.0
21/04:00am 29.0 25.7 8.1 27 11.5 E 15 17 8 9 1007.7 1006.3 0.0
21/03:30am 29.4 26.1 7.9 26 11.8 E 15 17 8 9 1007.6 1006.2 0.0
21/03:00am 29.7 26.2 7.0 24 12.3 ENE 15 19 8 10 1007.4 1006.0 0.0
21/02:30am 30.9 26.7 7.4 23 12.9 E 19 24 10 13 1007.6 1006.2 0.0
21/02:00am 31.3 26.8 7.1 22 13.3 E 20 26 11 14 1007.8 1006.4 0.0
21/01:30am 31.4 27.1 7.1 22 13.3 E 19 24 10 13 1008.1 1006.6 0.0
21/01:00am 31.5 27.4 7.9 23 13.1 ESE 19 24 10 13 1008.4 1006.9 0.0
21/12:30am 29.0 27.5 10.6 32 10.5 SE 9 11 5 6 1008.7 1007.2 0.0
21/12:00am 28.3 27.0 10.0 32 10.4 ESE 7 7 4 4 1008.8 1007.3 0.0
 
Date/Time
EST
Temp
°C
App
Temp
°C
Dew
Point
Rel
Hum
%
Delta-T
°C
Wind Press
QNH
hPa
Press
MSL
hPa
Rain
since 9 am
mm
Dir
 
Spd
km/h
Gust
km/h
Spd
kts
Gust
kts
20/11:30pm 30.6 29.1 10.5 29 11.6 ESE 9 9 5 5 1008.9 1007.4 0.0
20/11:00pm 30.8 29.0 9.6 27 12.1 ESE 9 11 5 6 1009.0 1007.5 0.0
20/10:30pm 31.7 29.6 9.8 26 12.5 ESE 11 11 6 6 1009.0 1007.5 0.0
20/10:00pm 32.4 30.0 9.9 25 13.0 ESE 13 15 7 8 1008.7 1007.2 0.0
20/09:30pm 32.8 30.7 9.6 24 13.3 ESE 11 11 6 6 1008.7 1007.2 0.0
20/09:00pm 33.6 31.1 9.6 23 13.8 ESE 13 13 7 7 1008.4 1006.9 0.0
20/08:30pm 34.8 32.2 9.3 21 14.7 SE 13 17 7 9 1008.2 1006.7 0.0
20/08:00pm 35.6 32.6 9.2 20 15.3 SE 15 19 8 10 1007.8 1006.4 0.0
20/07:30pm 36.1 32.4 9.6 20 15.4 ESE 19 24 10 13 1007.6 1006.2 0.0
20/07:00pm 36.9 33.0 9.5 19 16.0 SE 20 24 11 13 1007.3 1005.9 0.0
20/06:30pm 37.5 33.3 8.3 17 16.8 SE 20 28 11 15 1007.0 1005.6 0.0
20/06:00pm 37.9 35.1 8.6 17 17.0 SE 13 20 7 11 1006.7 1005.3 0.0
20/05:30pm 38.4 35.0 9.0 17 17.1 SSE 17 26 9 14 1006.5 1005.0 0.0
20/05:00pm 38.5 35.2 8.2 16 17.5 E 15 24 8 13 1006.5 1005.0 0.0
20/04:30pm 39.0 36.2 8.6 16 17.6 SSE 13 22 7 12 1006.5 1005.0 0.0
20/04:00pm 38.0 34.1 8.7 17 17.0 SE 19 30 10 16 1006.8 1005.4 0.0
20/03:30pm 38.2 36.1 9.7 18 16.8 SSE 11 19 6 10 1007.1 1005.7 0.0
20/03:00pm 38.7 36.7 10.1 18 17.0 ESE 11 22 6 12 1007.5 1006.1 0.0
20/02:30pm 38.3 35.4 9.8 18 16.8 ENE 15 26 8 14 1008.0 1006.5 0.0
20/02:00pm 37.3 34.8 9.8 19 16.2 SE 13 28 7 15 1008.7 1007.2 0.0
20/01:30pm 37.9 34.9 11.8 21 15.8 SE 19 30 10 16 1009.1 1007.6 0.0
20/01:00pm 37.8 34.1 10.2 19 16.3 ESE 20 32 11 17 1009.6 1008.1 0.0
20/12:30pm 37.1 34.8 11.8 22 15.3 SE 15 24 8 13 1010.0 1008.5 0.0
20/12:00pm 37.7 33.6 11.6 21 15.8 ESE 24 43 13 23 1010.6 1009.1 0.0
20/11:30am 37.3 33.6 12.7 23 15.0 SE 24 35 13 19 1011.1 1009.6 0.0
20/11:00am 36.2 32.0 12.4 24 14.4 E 26 35 14 19 1011.4 1009.9 0.0
20/10:30am 36.1 32.5 14.1 26 13.7 E 26 37 14 20 1011.7 1010.3 0.0
20/10:00am 34.9 31.8 15.7 31 12.2 ESE 26 39 14 21 1011.8 1010.4 0.0
20/09:30am 34.2 32.4 17.8 37 10.7 E 24 35 13 19 1012.0 1010.6 0.0
20/09:00am 33.0 31.7 17.2 39 10.2 ESE 20 30 11 16 1012.1 1010.7 0.0
20/08:30am 32.1 30.8 17.2 41 9.5 ESE 20 26 11 14 1012.2 1010.8 0.0
20/08:00am 31.0 28.6 15.4 38 9.7 ESE 22 26 12 14 1012.2 1010.8 0.0
20/07:30am 30.5 27.8 12.9 34 10.5 ESE 19 28 10 15 1012.0 1010.6 0.0
20/07:00am 29.7 27.2 11.2 31 10.7 SE 15 19 8 10 1011.5 1010.1 0.0
20/06:30am 28.6 26.9 11.2 34 10.0 SE 11 15 6 8 1011.0 1009.5 0.0
20/06:00am 27.3 26.0 11.3 37 9.2 SSE 9 11 5 6 1010.5 1009.0 0.0
20/05:30am 28.3 26.1 10.9 34 10.0 SE 13 15 7 8 1010.0 1008.5 0.0
20/05:00am 28.7 26.5 10.8 33 10.3 SE 13 19 7 10 1009.6 1008.1 0.0
20/04:30am 28.9 26.1 10.1 31 10.7 SE 15 17 8 9 1009.5 1008.0 0.0
20/04:00am 29.6 26.1 8.6 27 11.7 SE 17 20 9 11 1009.5 1008.0 0.0
20/03:30am 30.2 26.7 8.6 26 12.0 SE 17 22 9 12 1009.4 1007.9 0.0
20/03:00am 28.8 25.8 7.9 27 11.5 SSE 13 15 7 8 1009.7 1008.2 0.0
20/02:30am 28.5 26.0 9.7 31 10.6 SSE 13 17 7 9 1009.7 1008.2 0.0
20/02:00am 28.5 26.5 10.2 32 10.4 S 11 13 6 7 1009.7 1008.2 0.0
20/01:30am 29.3 26.8 10.9 32 10.6 S 15 17 8 9 1009.8 1008.3 0.0
20/01:00am 29.2 27.0 12.2 35 10.0 S 15 17 8 9 1010.0 1008.5 0.0
20/12:30am 29.0 27.7 13.6 38 9.3 S 13 17 7 9 1010.5 1009.0 0.0
20/12:00am 29.6 28.7 13.8 38 9.6 S 11 13 6 7 1010.9 1009.4 0.0
 
Date/Time
EST
Temp
°C
App
Temp
°C
Dew
Point
Rel
Hum
%
Delta-T
°C
Wind Press
QNH
hPa
Press
MSL
hPa
Rain
since 9 am
mm
Dir
 
Spd
km/h
Gust
km/h
Spd
kts
Gust
kts
19/11:30pm 29.8 29.6 14.7 39 9.3 S 9 9 5 5 1011.2 1009.7 0.0
19/11:00pm 30.7 30.4 14.3 36 10.0 S 9 11 5 6 1011.4 1009.9 0.0
19/10:30pm 31.5 30.2 13.7 33 10.8 S 13 13 7 7 1011.2 1009.7 0.0
19/10:00pm 33.1 31.4 13.7 31 11.9 SSE 15 20 8 11 1011.0 1009.5 0.0
19/09:30pm 32.3 31.6 14.4 33 11.0 SSE 11 13 6 7 1010.8 1009.3 0.0
19/09:00pm 33.6 32.6 14.6 31 11.8 SE 13 15 7 8 1010.5 1009.0 0.0
19/08:30pm 33.9 32.5 14.4 31 12.1 ESE 15 19 8 10 1010.3 1008.8 0.0
19/08:00pm 34.5 32.5 14.9 31 12.3 ESE 19 22 10 12 1009.8 1008.3 0.0
19/07:30pm 35.0 32.8 14.8 29 12.6 ESE 20 28 11 15 1009.5 1008.0 0.0
19/07:00pm 35.2 33.0 15.0 30 12.7 E 20 26 11 14 1009.1 1007.6 0.0
19/06:30pm 35.6 32.8 15.3 29 12.8 E 24 30 13 16 1008.7 1007.2 0.0
19/06:00pm 36.6 34.7 15.7 29 13.3 E 20 33 11 18 1008.5 1007.0 0.0
19/05:30pm 35.9 34.7 15.1 29 13.1 S 15 20 8 11 1008.5 1007.0 0.0
19/05:00pm 36.7 35.6 15.2 27 13.6 ESE 15 24 8 13 1008.4 1006.9 0.0
19/04:30pm 36.0 35.0 15.7 30 12.9 SE 15 22 8 12 1008.6 1007.1 0.0
19/04:00pm 36.5 35.3 15.0 27 13.6 SSE 15 26 8 14 1008.9 1007.4 0.0
19/03:30pm 36.4 35.2 15.0 28 13.5 SE 15 24 8 13 1009.3 1007.8 0.0
19/03:00pm 36.1 35.2 15.8 30 12.9 S 15 28 8 15 1009.7 1008.2 0.0
19/02:30pm 35.7 35.2 15.9 30 12.6 SSE 13 22 7 12 1010.2 1008.7 0.0
19/02:00pm 36.0 35.4 15.7 30 12.9 ESE 13 22 7 12 1010.6 1009.1 0.0
19/01:30pm 35.1 33.6 15.4 30 12.4 E 17 28 9 15 1011.1 1009.6 0.0
19/01:00pm 34.9 35.1 15.7 31 12.2 S 9 22 5 12 1011.5 1010.1 0.0
19/12:30pm 33.6 32.1 14.1 30 12.0 SE 15 24 8 13 1012.0 1010.6 0.0
19/12:00pm 33.6 32.0 15.1 33 11.6 SE 17 26 9 14 1012.3 1010.9 0.0
19/11:30am 32.9 33.0 15.4 35 11.0 SE 9 17 5 9 1012.6 1011.2 0.0
19/11:00am 32.2 30.9 14.8 35 10.8 SSE 15 24 8 13 1012.9 1011.5 0.0
19/10:30am 31.9 31.4 15.8 38 10.1 SE 13 24 7 13 1013.2 1011.8 0.0
19/10:00am 30.8 30.0 16.0 40 9.3 SE 15 22 8 12 1013.4 1012.0 0.0
19/09:30am 29.9 30.1 16.7 45 8.3 SSE 11 17 6 9 1013.7 1012.2 0.0
19/09:00am 28.8 28.2 16.7 48 7.6 SSE 15 20 8 11 1013.7 1012.2 0.0
19/08:30am 28.5 28.0 17.7 52 6.9 SSE 17 20 9 11 1013.8 1012.3 0.0
19/08:00am 27.7 27.2 16.9 51 6.8 S 15 20 8 11 1013.7 1012.2 0.0
19/07:30am 26.8 26.2 17.6 57 5.8 S 17 20 9 11 1013.3 1011.9 0.0
19/07:00am 25.7 26.1 18.1 63 4.8 S 13 15 7 8 1013.2 1011.8 0.0
19/06:30am 24.4 25.5 18.1 68 4.0 SSW 9 11 5 6 1012.7 1011.3 0.0
19/06:00am 23.5 24.7 18.2 72 3.4 SSW 9 11 5 6 1012.3 1010.9 0.0
19/05:30am 23.5 24.8 18.4 73 3.2 SSW 9 11 5 6 1011.8 1010.4 0.0
19/05:00am 23.6 24.9 18.5 73 3.2 SSW 9 13 5 7 1011.3 1009.8 0.0
19/04:30am 23.8 25.2 18.7 73 3.3 SSW 9 11 5 6 1011.0 1009.5 0.0
19/04:00am 24.0 25.4 18.6 72 3.4 SSW 9 11 5 6 1010.8 1009.3 0.0
19/03:30am 24.0 25.9 18.6 72 3.4 SSW 6 6 3 3 1010.9 1009.4 0.0
19/03:00am 24.0 26.9 18.2 70 3.7 CALM 0 0 0 0 1011.3 1009.8 0.0
19/02:30am 24.8 26.7 18.5 68 4.0 ESE 6 7 3 4 1011.2 1009.7 0.0
19/02:00am 24.9 26.5 18.3 66 4.2 SE 7 9 4 5 1011.2 1009.7 0.0
19/01:30am 25.3 27.0 18.5 66 4.3 SE 7 9 4 5 1011.4 1009.9 0.0
19/01:00am 25.6 26.1 18.3 64 4.7 SSE 13 17 7 9 1012.0 1010.6 0.0
19/12:30am 25.9 26.4 18.3 63 4.9 ESE 13 17 7 9 1012.7 1011.3 0.0
19/12:00am 26.1 25.9 18.5 63 4.9 E 17 20 9 11 1013.7 1012.2 0.0
 
Date/Time
EST
Temp
°C
App
Temp
°C
Dew
Point
Rel
Hum
%
Delta-T
°C
Wind Press
QNH
hPa
Press
MSL
hPa
Rain
since 9 am
mm
Dir
 
Spd
km/h
Gust
km/h
Spd
kts
Gust
kts
18/11:30pm 26.3 26.0 18.2 61 5.2 ESE 17 22 9 12 1013.9 1012.4 0.0
18/11:00pm 26.3 25.4 18.2 61 5.2 SE 20 30 11 16 1013.7 1012.2 0.0
18/10:30pm 26.5 25.0 17.8 58 5.5 SE 22 30 12 16 1013.7 1012.2 0.0
18/10:00pm 26.9 24.5 18.2 59 5.6 ESE 28 35 15 19 1013.1 1011.7 0.0
18/09:30pm 27.0 25.4 18.3 59 5.6 ESE 24 30 13 16 1012.8 1011.4 0.0
18/09:00pm 27.3 26.2 18.6 59 5.6 ESE 22 28 12 15 1012.3 1010.9 0.0
18/08:30pm 27.9 27.3 18.9 58 5.8 E 20 26 11 14 1011.9 1010.5 0.0
18/08:00pm 28.3 27.4 19.0 57 6.0 E 22 26 12 14 1012.0 1010.6 0.0
18/07:30pm 29.7 29.2 16.8 45 8.2 S 15 19 8 10 1011.5 1010.1 0.0
18/07:00pm 30.0 28.8 17.1 46 8.2 S 19 26 10 14 1011.3 1009.8 0.0
18/06:30pm 30.3 28.5 17.0 44 8.4 SSE 22 28 12 15 1011.1 1009.6 0.0
18/06:00pm 31.0 28.6 17.3 43 8.8 S 26 35 14 19 1010.3 1008.8 0.0
18/05:30pm 31.2 27.4 16.8 42 9.1 S 32 43 17 23 1010.0 1008.5 0.0
18/05:00pm 31.5 28.7 17.4 43 9.1 S 28 37 15 20 1009.7 1008.2 0.0

Other Formats:

Comma delimited format used in spreadsheet applications
http://www.bom.gov.au/fwo/IDQ60801/IDQ60801.94335.axf

JavaScript Object Notation format (JSON) in row-major order
http://www.bom.gov.au/fwo/IDQ60801/IDQ60801.94335.json